sensor_id;sensor_type;location;lat;lon;timestamp;pressure;altitude;pressure_sealevel;temperature;humidity
30819;BME280;17546;42.674;23.284;2023-03-04T00:00:56;94748.94;;;13.03;49.96
30819;BME280;17546;42.674;23.284;2023-03-04T00:03:21;94753.44;;;13.12;49.70
30819;BME280;17546;42.674;23.284;2023-03-04T00:05:47;94748.19;;;13.03;49.86
30819;BME280;17546;42.674;23.284;2023-03-04T00:08:12;94753.09;;;12.74;50.29
30819;BME280;17546;42.674;23.284;2023-03-04T00:10:38;94750.59;;;12.71;50.50
30819;BME280;17546;42.674;23.284;2023-03-04T00:13:03;94746.69;;;12.96;50.00
30819;BME280;17546;42.674;23.284;2023-03-04T00:15:29;94741.31;;;13.10;49.80
30819;BME280;17546;42.674;23.284;2023-03-04T00:17:55;94741.66;;;12.95;49.85
30819;BME280;17546;42.674;23.284;2023-03-04T00:20:20;94743.88;;;13.08;49.71
30819;BME280;17546;42.674;23.284;2023-03-04T00:22:46;94742.34;;;13.07;49.75
30819;BME280;17546;42.674;23.284;2023-03-04T00:25:11;94748.69;;;12.96;49.49
30819;BME280;17546;42.674;23.284;2023-03-04T00:27:37;94739.91;;;12.86;50.09
30819;BME280;17546;42.674;23.284;2023-03-04T00:30:05;94733.44;;;13.14;49.46
30819;BME280;17546;42.674;23.284;2023-03-04T00:32:30;94738.34;;;12.96;49.57
30819;BME280;17546;42.674;23.284;2023-03-04T00:34:56;94729.72;;;13.06;49.48
30819;BME280;17546;42.674;23.284;2023-03-04T00:37:21;94739.75;;;13.20;49.21
30819;BME280;17546;42.674;23.284;2023-03-04T00:39:47;94728.13;;;13.16;49.38
30819;BME280;17546;42.674;23.284;2023-03-04T00:42:12;94733.69;;;13.16;49.06
30819;BME280;17546;42.674;23.284;2023-03-04T00:44:38;94735.19;;;13.28;49.16
30819;BME280;17546;42.674;23.284;2023-03-04T00:47:04;94728.34;;;13.29;48.83
30819;BME280;17546;42.674;23.284;2023-03-04T00:49:30;94734.88;;;13.37;48.73
30819;BME280;17546;42.674;23.284;2023-03-04T00:51:56;94735.38;;;13.36;48.86
30819;BME280;17546;42.674;23.284;2023-03-04T00:54:22;94736.06;;;13.48;48.57
30819;BME280;17546;42.674;23.284;2023-03-04T00:56:48;94734.59;;;13.41;48.50
30819;BME280;17546;42.674;23.284;2023-03-04T00:59:14;94729.72;;;13.53;48.38
30819;BME280;17546;42.674;23.284;2023-03-04T01:01:39;94733.97;;;13.59;48.29
30819;BME280;17546;42.674;23.284;2023-03-04T01:04:05;94733.28;;;13.48;48.39
30819;BME280;17546;42.674;23.284;2023-03-04T01:06:30;94722.41;;;13.50;48.15
30819;BME280;17546;42.674;23.284;2023-03-04T01:08:55;94731.28;;;13.42;48.36
30819;BME280;17546;42.674;23.284;2023-03-04T01:11:21;94719.69;;;13.38;48.34
30819;BME280;17546;42.674;23.284;2023-03-04T01:13:46;94729.38;;;13.62;47.73
30819;BME280;17546;42.674;23.284;2023-03-04T01:16:12;94731.94;;;13.60;47.75
30819;BME280;17546;42.674;23.284;2023-03-04T01:18:38;94723.53;;;13.66;47.67
30819;BME280;17546;42.674;23.284;2023-03-04T01:21:04;94727.84;;;13.67;47.82
30819;BME280;17546;42.674;23.284;2023-03-04T01:23:34;94719.53;;;13.61;47.97
30819;BME280;17546;42.674;23.284;2023-03-04T01:25:59;94718.25;;;13.62;47.98
30819;BME280;17546;42.674;23.284;2023-03-04T01:28:25;94720.16;;;13.78;47.68
30819;BME280;17546;42.674;23.284;2023-03-04T01:30:50;94712.06;;;13.80;47.45
30819;BME280;17546;42.674;23.284;2023-03-04T01:33:16;94710.81;;;13.76;47.19
30819;BME280;17546;42.674;23.284;2023-03-04T01:35:41;94714.06;;;13.44;47.90
30819;BME280;17546;42.674;23.284;2023-03-04T01:38:07;94702.59;;;13.17;48.11
30819;BME280;17546;42.674;23.284;2023-03-04T01:40:32;94700.47;;;13.40;47.57
30819;BME280;17546;42.674;23.284;2023-03-04T01:42:58;94700.22;;;13.38;47.45
30819;BME280;17546;42.674;23.284;2023-03-04T01:45:24;94695.06;;;13.07;48.23
30819;BME280;17546;42.674;23.284;2023-03-04T01:47:50;94690.22;;;13.13;48.11
30819;BME280;17546;42.674;23.284;2023-03-04T01:50:29;94693.63;;;12.94;48.43
30819;BME280;17546;42.674;23.284;2023-03-04T01:52:56;94687.59;;;12.85;48.38
30819;BME280;17546;42.674;23.284;2023-03-04T01:55:22;94699.63;;;13.04;48.18
30819;BME280;17546;42.674;23.284;2023-03-04T01:57:49;94694.34;;;13.00;48.15
30819;BME280;17546;42.674;23.284;2023-03-04T02:00:30;94698.56;;;13.13;47.93
30819;BME280;17546;42.674;23.284;2023-03-04T02:03:12;94692.69;;;13.22;47.74
30819;BME280;17546;42.674;23.284;2023-03-04T02:05:42;94693.75;;;13.19;47.74
30819;BME280;17546;42.674;23.284;2023-03-04T02:08:09;94694.69;;;13.27;47.60
30819;BME280;17546;42.674;23.284;2023-03-04T02:10:36;94690.22;;;13.13;47.62
30819;BME280;17546;42.674;23.284;2023-03-04T02:13:02;94690.16;;;13.24;47.47
30819;BME280;17546;42.674;23.284;2023-03-04T02:15:29;94689.63;;;13.31;47.42
30819;BME280;17546;42.674;23.284;2023-03-04T02:17:54;94682.81;;;13.27;47.49
30819;BME280;17546;42.674;23.284;2023-03-04T02:25:41;94677.72;;;13.36;47.34
30819;BME280;17546;42.674;23.284;2023-03-04T02:28:07;94676.34;;;13.49;47.24
30819;BME280;17546;42.674;23.284;2023-03-04T02:30:33;94672.06;;;13.48;47.08
30819;BME280;17546;42.674;23.284;2023-03-04T02:32:59;94679.34;;;13.56;47.00
30819;BME280;17546;42.674;23.284;2023-03-04T02:35:24;94677.31;;;13.57;46.64
30819;BME280;17546;42.674;23.284;2023-03-04T02:37:50;94670.22;;;13.56;46.68
30819;BME280;17546;42.674;23.284;2023-03-04T02:40:22;94685.16;;;13.58;46.76
30819;BME280;17546;42.674;23.284;2023-03-04T02:42:49;94672.69;;;13.65;46.56
30819;BME280;17546;42.674;23.284;2023-03-04T02:45:34;94664.09;;;13.63;46.67
30819;BME280;17546;42.674;23.284;2023-03-04T02:48:00;94661.09;;;13.61;46.62
30819;BME280;17546;42.674;23.284;2023-03-04T02:50:27;94663.06;;;13.66;46.51
30819;BME280;17546;42.674;23.284;2023-03-04T02:52:54;94661.75;;;13.73;46.08
30819;BME280;17546;42.674;23.284;2023-03-04T02:55:19;94666.09;;;13.68;46.36
30819;BME280;17546;42.674;23.284;2023-03-04T02:57:45;94663.38;;;13.62;46.16
30819;BME280;17546;42.674;23.284;2023-03-04T03:00:11;94658.81;;;13.59;46.11
30819;BME280;17546;42.674;23.284;2023-03-04T03:02:37;94672.78;;;13.54;46.13
30819;BME280;17546;42.674;23.284;2023-03-04T03:05:02;94666.34;;;13.34;46.77
30819;BME280;17546;42.674;23.284;2023-03-04T03:07:28;94658.53;;;13.33;46.53
30819;BME280;17546;42.674;23.284;2023-03-04T03:09:53;94672.84;;;13.42;46.57
30819;BME280;17546;42.674;23.284;2023-03-04T03:12:19;94667.59;;;13.39;46.73
30819;BME280;17546;42.674;23.284;2023-03-04T03:14:44;94670.06;;;13.42;46.67
30819;BME280;17546;42.674;23.284;2023-03-04T03:17:12;94672.06;;;13.48;46.46
30819;BME280;17546;42.674;23.284;2023-03-04T03:19:37;94670.75;;;13.54;46.17
30819;BME280;17546;42.674;23.284;2023-03-04T03:22:03;94668.25;;;13.51;46.47
30819;BME280;17546;42.674;23.284;2023-03-04T03:24:28;94671.91;;;13.34;46.70
30819;BME280;17546;42.674;23.284;2023-03-04T03:26:54;94668.16;;;13.26;46.86
30819;BME280;17546;42.674;23.284;2023-03-04T03:29:19;94671.19;;;13.22;46.84
30819;BME280;17546;42.674;23.284;2023-03-04T03:31:45;94666.13;;;13.32;46.56
30819;BME280;17546;42.674;23.284;2023-03-04T03:34:10;94670.59;;;13.41;46.62
30819;BME280;17546;42.674;23.284;2023-03-04T03:36:35;94653.91;;;13.41;46.60
30819;BME280;17546;42.674;23.284;2023-03-04T03:39:01;94660.69;;;13.46;46.48
30819;BME280;17546;42.674;23.284;2023-03-04T03:41:26;94668.25;;;13.51;46.02
30819;BME280;17546;42.674;23.284;2023-03-04T03:43:52;94661.94;;;13.50;46.17
30819;BME280;17546;42.674;23.284;2023-03-04T03:46:17;94661.69;;;13.48;46.21
30819;BME280;17546;42.674;23.284;2023-03-04T03:48:43;94657.84;;;13.51;45.85
30819;BME280;17546;42.674;23.284;2023-03-04T03:51:08;94654.06;;;13.54;45.93
30819;BME280;17546;42.674;23.284;2023-03-04T03:53:33;94656.63;;;13.47;46.09
30819;BME280;17546;42.674;23.284;2023-03-04T03:55:59;94657.19;;;13.39;46.18
30819;BME280;17546;42.674;23.284;2023-03-04T03:58:24;94655.94;;;13.40;46.17
30819;BME280;17546;42.674;23.284;2023-03-04T04:00:51;94652.94;;;13.38;45.98
30819;BME280;17546;42.674;23.284;2023-03-04T04:03:16;94643.81;;;13.38;46.02
30819;BME280;17546;42.674;23.284;2023-03-04T04:05:42;94645.31;;;13.39;46.10
30819;BME280;17546;42.674;23.284;2023-03-04T04:08:12;94640.50;;;13.39;46.12
30819;BME280;17546;42.674;23.284;2023-03-04T04:10:38;94647.88;;;13.37;45.90
30819;BME280;17546;42.674;23.284;2023-03-04T04:13:03;94639.00;;;13.38;45.95
30819;BME280;17546;42.674;23.284;2023-03-04T04:15:29;94637.16;;;13.47;45.53
30819;BME280;17546;42.674;23.284;2023-03-04T04:17:54;94640.50;;;13.39;45.67
30819;BME280;17546;42.674;23.284;2023-03-04T04:20:20;94642.78;;;13.41;45.38
30819;BME280;17546;42.674;23.284;2023-03-04T04:22:45;94636.81;;;13.26;45.61
30819;BME280;17546;42.674;23.284;2023-03-04T04:25:11;94640.09;;;13.30;45.76
30819;BME280;17546;42.674;23.284;2023-03-04T04:27:36;94640.09;;;13.24;45.71
30819;BME280;17546;42.674;23.284;2023-03-04T04:30:03;94643.38;;;13.22;45.67
30819;BME280;17546;42.674;23.284;2023-03-04T04:32:29;94639.38;;;13.18;45.85
30819;BME280;17546;42.674;23.284;2023-03-04T04:34:54;94644.50;;;13.08;46.19
30819;BME280;17546;42.674;23.284;2023-03-04T04:37:19;94634.03;;;13.20;45.66
30819;BME280;17546;42.674;23.284;2023-03-04T04:39:45;94639.41;;;13.12;45.80
30819;BME280;17546;42.674;23.284;2023-03-04T04:42:10;94641.50;;;13.00;46.10
30819;BME280;17546;42.674;23.284;2023-03-04T04:44:36;94645.31;;;12.97;46.02
30819;BME280;17546;42.674;23.284;2023-03-04T04:47:03;94646.59;;;12.96;45.82
30819;BME280;17546;42.674;23.284;2023-03-04T04:49:30;94644.09;;;12.87;46.36
30819;BME280;17546;42.674;23.284;2023-03-04T04:51:56;94642.53;;;12.97;46.14
30819;BME280;17546;42.674;23.284;2023-03-04T04:54:25;94638.56;;;12.87;46.23
30819;BME280;17546;42.674;23.284;2023-03-04T04:56:51;94647.38;;;12.91;45.83
30819;BME280;17546;42.674;23.284;2023-03-04T04:59:16;94651.50;;;12.79;45.99
30819;BME280;17546;42.674;23.284;2023-03-04T05:01:42;94653.25;;;12.76;46.10
30819;BME280;17546;42.674;23.284;2023-03-04T05:04:07;94647.50;;;12.74;45.99
30819;BME280;17546;42.674;23.284;2023-03-04T05:06:33;94657.25;;;12.87;45.94
30819;BME280;17546;42.674;23.284;2023-03-04T05:08:58;94659.84;;;12.73;46.25
30819;BME280;17546;42.674;23.284;2023-03-04T05:11:24;94667.38;;;12.84;46.09
30819;BME280;17546;42.674;23.284;2023-03-04T05:13:49;94666.41;;;12.81;46.13
30819;BME280;17546;42.674;23.284;2023-03-04T05:16:15;94662.06;;;12.86;46.12
30819;BME280;17546;42.674;23.284;2023-03-04T05:18:42;94669.13;;;12.87;46.03
30819;BME280;17546;42.674;23.284;2023-03-04T05:21:08;94663.56;;;12.87;45.93
30819;BME280;17546;42.674;23.284;2023-03-04T05:23:35;94671.41;;;12.83;45.99
30819;BME280;17546;42.674;23.284;2023-03-04T05:26:03;94676.22;;;12.88;46.22
30819;BME280;17546;42.674;23.284;2023-03-04T05:28:29;94676.00;;;12.80;46.09
30819;BME280;17546;42.674;23.284;2023-03-04T05:30:54;94686.34;;;12.86;46.14
30819;BME280;17546;42.674;23.284;2023-03-04T05:33:20;94688.84;;;12.89;45.90
30819;BME280;17546;42.674;23.284;2023-03-04T05:35:47;94686.78;;;12.95;45.85
30819;BME280;17546;42.674;23.284;2023-03-04T05:38:14;94682.53;;;12.89;46.10
30819;BME280;17546;42.674;23.284;2023-03-04T05:40:40;94675.88;;;13.03;45.76
30819;BME280;17546;42.674;23.284;2023-03-04T05:43:06;94683.28;;;12.89;46.19
30819;BME280;17546;42.674;23.284;2023-03-04T05:45:32;94689.25;;;13.05;46.03
30819;BME280;17546;42.674;23.284;2023-03-04T05:47:58;94687.03;;;12.97;45.87
30819;BME280;17546;42.674;23.284;2023-03-04T05:50:24;94693.81;;;13.08;45.76
30819;BME280;17546;42.674;23.284;2023-03-04T05:52:50;94688.72;;;13.12;46.01
30819;BME280;17546;42.674;23.284;2023-03-04T05:55:16;94694.81;;;13.10;45.95
30819;BME280;17546;42.674;23.284;2023-03-04T05:57:42;94686.97;;;13.09;46.07
30819;BME280;17546;42.674;23.284;2023-03-04T06:00:09;94691.78;;;13.08;46.34
30819;BME280;17546;42.674;23.284;2023-03-04T06:02:36;94693.50;;;13.11;46.37
30819;BME280;17546;42.674;23.284;2023-03-04T06:05:02;94707.13;;;13.20;46.37
30819;BME280;17546;42.674;23.284;2023-03-04T06:07:28;94702.53;;;13.29;46.11
30819;BME280;17546;42.674;23.284;2023-03-04T06:09:53;94699.50;;;13.27;46.17
30819;BME280;17546;42.674;23.284;2023-03-04T06:12:39;94702.28;;;13.32;46.26
30819;BME280;17546;42.674;23.284;2023-03-04T06:15:05;94702.47;;;13.40;46.12
30819;BME280;17546;42.674;23.284;2023-03-04T06:17:32;94706.03;;;13.40;46.04
30819;BME280;17546;42.674;23.284;2023-03-04T06:19:57;94708.00;;;13.46;46.06
30819;BME280;17546;42.674;23.284;2023-03-04T06:22:23;94714.81;;;13.44;46.19
30819;BME280;17546;42.674;23.284;2023-03-04T06:24:48;94710.72;;;13.51;45.78
30819;BME280;17546;42.674;23.284;2023-03-04T06:27:13;94716.00;;;13.60;45.41
30819;BME280;17546;42.674;23.284;2023-03-04T06:29:41;94718.53;;;13.58;45.65
30819;BME280;17546;42.674;23.284;2023-03-04T06:32:06;94708.81;;;13.71;45.37
30819;BME280;17546;42.674;23.284;2023-03-04T06:34:31;94709.56;;;13.71;45.66
30819;BME280;17546;42.674;23.284;2023-03-04T06:36:58;94712.84;;;13.75;45.50
30819;BME280;17546;42.674;23.284;2023-03-04T06:39:23;94717.63;;;13.80;45.50
30819;BME280;17546;42.674;23.284;2023-03-04T06:41:49;94711.28;;;13.80;45.48
30819;BME280;17546;42.674;23.284;2023-03-04T06:44:14;94708.59;;;13.69;45.84
30819;BME280;17546;42.674;23.284;2023-03-04T06:46:40;94722.09;;;13.59;46.33
30819;BME280;17546;42.674;23.284;2023-03-04T06:49:05;94726.91;;;13.58;45.95
30819;BME280;17546;42.674;23.284;2023-03-04T06:51:31;94721.44;;;13.41;46.02
30819;BME280;17546;42.674;23.284;2023-03-04T06:53:56;94719.63;;;13.50;46.11
30819;BME280;17546;42.674;23.284;2023-03-04T06:56:22;94719.13;;;13.46;46.48
30819;BME280;17546;42.674;23.284;2023-03-04T06:58:47;94721.91;;;13.46;46.54
30819;BME280;17546;42.674;23.284;2023-03-04T07:01:25;94731.09;;;13.35;46.36
30819;BME280;17546;42.674;23.284;2023-03-04T07:03:51;94716.19;;;13.27;46.39
30819;BME280;17546;42.674;23.284;2023-03-04T07:06:19;94731.59;;;13.33;46.57
30819;BME280;17546;42.674;23.284;2023-03-04T07:08:49;94736.56;;;13.52;46.36
30819;BME280;17546;42.674;23.284;2023-03-04T07:11:15;94725.53;;;13.29;46.18
30819;BME280;17546;42.674;23.284;2023-03-04T07:13:41;94724.47;;;13.43;45.83
30819;BME280;17546;42.674;23.284;2023-03-04T07:16:08;94735.41;;;13.30;46.39
30819;BME280;17546;42.674;23.284;2023-03-04T07:18:35;94733.38;;;13.31;46.34
30819;BME280;17546;42.674;23.284;2023-03-04T07:21:00;94733.00;;;12.29;47.98
30819;BME280;17546;42.674;23.284;2023-03-04T07:23:26;94740.63;;;12.00;48.29
30819;BME280;17546;42.674;23.284;2023-03-04T07:25:52;94751.47;;;12.09;48.19
30819;BME280;17546;42.674;23.284;2023-03-04T07:28:17;94725.38;;;12.57;47.65
30819;BME280;17546;42.674;23.284;2023-03-04T07:30:43;94734.00;;;12.26;48.20
30819;BME280;17546;42.674;23.284;2023-03-04T07:33:08;94741.94;;;12.80;47.45
30819;BME280;17546;42.674;23.284;2023-03-04T07:35:34;94740.41;;;12.90;47.18
30819;BME280;17546;42.674;23.284;2023-03-04T07:38:03;94727.44;;;13.04;46.64
30819;BME280;17546;42.674;23.284;2023-03-04T07:40:28;94735.75;;;13.10;46.93
30819;BME280;17546;42.674;23.284;2023-03-04T07:42:54;94729.22;;;13.01;47.35
30819;BME280;17546;42.674;23.284;2023-03-04T07:45:20;94739.84;;;12.97;47.21
30819;BME280;17546;42.674;23.284;2023-03-04T07:47:46;94734.06;;;12.95;46.66
30819;BME280;17546;42.674;23.284;2023-03-04T07:50:12;94732.88;;;13.32;46.10
30819;BME280;17546;42.674;23.284;2023-03-04T07:52:38;94731.59;;;13.33;46.16
30819;BME280;17546;42.674;23.284;2023-03-04T07:55:04;94727.72;;;13.48;45.37
30819;BME280;17546;42.674;23.284;2023-03-04T07:57:30;94732.53;;;13.47;45.57
30819;BME280;17546;42.674;23.284;2023-03-04T07:59:55;94721.84;;;13.57;45.39
30819;BME280;17546;42.674;23.284;2023-03-04T08:02:21;94726.38;;;13.18;45.93
30819;BME280;17546;42.674;23.284;2023-03-04T08:04:46;94717.34;;;13.01;45.98
30819;BME280;17546;42.674;23.284;2023-03-04T08:07:12;94718.28;;;13.15;45.53
30819;BME280;17546;42.674;23.284;2023-03-04T08:09:37;94730.06;;;13.74;44.54
30819;BME280;17546;42.674;23.284;2023-03-04T08:12:03;94708.78;;;13.76;44.17
30819;BME280;17546;42.674;23.284;2023-03-04T08:14:28;94725.19;;;14.10;43.84
30819;BME280;17546;42.674;23.284;2023-03-04T08:16:54;94720.34;;;14.16;43.46
30819;BME280;17546;42.674;23.284;2023-03-04T08:19:20;94721.56;;;14.21;43.44
30819;BME280;17546;42.674;23.284;2023-03-04T08:21:46;94718.25;;;14.22;43.10
30819;BME280;17546;42.674;23.284;2023-03-04T08:24:12;94730.97;;;14.18;43.63
30819;BME280;17546;42.674;23.284;2023-03-04T08:26:40;94723.25;;;14.30;43.41
30819;BME280;17546;42.674;23.284;2023-03-04T08:29:07;94721.47;;;14.02;43.66
30819;BME280;17546;42.674;23.284;2023-03-04T08:31:33;94718.41;;;14.05;43.25
30819;BME280;17546;42.674;23.284;2023-03-04T08:34:02;94724.84;;;14.19;43.30
30819;BME280;17546;42.674;23.284;2023-03-04T08:36:28;94719.28;;;14.19;43.30
30819;BME280;17546;42.674;23.284;2023-03-04T08:38:53;94722.66;;;14.12;43.04
30819;BME280;17546;42.674;23.284;2023-03-04T08:41:19;94721.84;;;14.17;43.17
30819;BME280;17546;42.674;23.284;2023-03-04T08:43:44;94717.13;;;14.06;43.41
30819;BME280;17546;42.674;23.284;2023-03-04T08:46:10;94716.81;;;13.85;43.48
30819;BME280;17546;42.674;23.284;2023-03-04T08:48:36;94713.34;;;14.04;43.45
30819;BME280;17546;42.674;23.284;2023-03-04T08:51:07;94707.31;;;14.00;43.12
30819;BME280;17546;42.674;23.284;2023-03-04T08:53:33;94709.03;;;13.42;44.18
30819;BME280;17546;42.674;23.284;2023-03-04T08:55:58;94709.88;;;13.98;43.21
30819;BME280;17546;42.674;23.284;2023-03-04T08:58:23;94715.47;;;14.22;43.26
30819;BME280;17546;42.674;23.284;2023-03-04T09:00:49;94712.78;;;14.11;43.04
30819;BME280;17546;42.674;23.284;2023-03-04T09:03:16;94711.00;;;14.14;43.08
30819;BME280;17546;42.674;23.284;2023-03-04T09:05:44;94707.75;;;14.10;43.34
30819;BME280;17546;42.674;23.284;2023-03-04T09:08:10;94706.75;;;14.32;43.35
30819;BME280;17546;42.674;23.284;2023-03-04T09:10:35;94711.09;;;14.57;42.82
30819;BME280;17546;42.674;23.284;2023-03-04T09:13:02;94707.56;;;14.76;42.33
30819;BME280;17546;42.674;23.284;2023-03-04T09:15:27;94700.03;;;14.71;42.09
30819;BME280;17546;42.674;23.284;2023-03-04T09:17:53;94699.81;;;14.69;41.88
30819;BME280;17546;42.674;23.284;2023-03-04T09:20:18;94699.41;;;14.59;41.84
30819;BME280;17546;42.674;23.284;2023-03-04T09:22:45;94691.56;;;14.57;41.71
30819;BME280;17546;42.674;23.284;2023-03-04T09:25:12;94696.19;;;14.49;41.75
30819;BME280;17546;42.674;23.284;2023-03-04T09:27:39;94692.00;;;14.12;42.46
30819;BME280;17546;42.674;23.284;2023-03-04T09:30:05;94690.47;;;13.87;42.96
30819;BME280;17546;42.674;23.284;2023-03-04T09:32:31;94685.78;;;14.55;42.12
30819;BME280;17546;42.674;23.284;2023-03-04T09:34:56;94687.53;;;14.28;42.42
30819;BME280;17546;42.674;23.284;2023-03-04T09:37:25;94675.09;;;14.54;42.12
30819;BME280;17546;42.674;23.284;2023-03-04T09:39:50;94680.47;;;14.27;42.34
30819;BME280;17546;42.674;23.284;2023-03-04T09:42:36;94669.88;;;14.69;42.49
30819;BME280;17546;42.674;23.284;2023-03-04T09:45:06;94679.69;;;14.95;41.93
30819;BME280;17546;42.674;23.284;2023-03-04T09:47:34;94675.41;;;14.94;41.51
30819;BME280;17546;42.674;23.284;2023-03-04T09:50:07;94675.84;;;15.17;41.21
30819;BME280;17546;42.674;23.284;2023-03-04T09:55:31;94676.50;;;15.23;41.88
30819;BME280;17546;42.674;23.284;2023-03-04T10:03:34;94666.44;;;14.82;41.12
30819;BME280;17546;42.674;23.284;2023-03-04T10:06:06;94664.59;;;15.41;40.70
30819;BME280;17546;42.674;23.284;2023-03-04T10:11:00;94666.97;;;15.50;40.91
30819;BME280;17546;42.674;23.284;2023-03-04T10:16:22;94642.69;;;14.51;41.98
30819;BME280;17546;42.674;23.284;2023-03-04T10:18:53;94655.09;;;14.31;42.06
30819;BME280;17546;42.674;23.284;2023-03-04T10:21:30;94649.41;;;14.66;41.49
30819;BME280;17546;42.674;23.284;2023-03-04T10:24:11;94640.63;;;14.95;40.79
30819;BME280;17546;42.674;23.284;2023-03-04T10:26:39;94636.84;;;15.30;40.21
30819;BME280;17546;42.674;23.284;2023-03-04T10:29:18;94634.25;;;15.32;41.03
30819;BME280;17546;42.674;23.284;2023-03-04T10:31:45;94641.44;;;15.60;40.59
30819;BME280;17546;42.674;23.284;2023-03-04T10:34:12;94634.66;;;15.74;40.51
30819;BME280;17546;42.674;23.284;2023-03-04T10:39:37;94625.50;;;15.74;40.38
30819;BME280;17546;42.674;23.284;2023-03-04T10:42:20;94625.56;;;15.55;40.74
30819;BME280;17546;42.674;23.284;2023-03-04T10:47:26;94606.44;;;14.75;41.92
30819;BME280;17546;42.674;23.284;2023-03-04T10:49:57;94615.28;;;15.31;41.15
30819;BME280;17546;42.674;23.284;2023-03-04T10:52:29;94604.03;;;14.85;41.85
30819;BME280;17546;42.674;23.284;2023-03-04T10:54:58;94606.22;;;15.24;41.09
30819;BME280;17546;42.674;23.284;2023-03-04T10:57:37;94599.03;;;14.97;41.32
30819;BME280;17546;42.674;23.284;2023-03-04T11:02:41;94599.97;;;14.86;41.74
30819;BME280;17546;42.674;23.284;2023-03-04T11:05:25;94595.88;;;15.38;40.53
30819;BME280;17546;42.674;23.284;2023-03-04T11:07:55;94586.44;;;15.09;41.38
30819;BME280;17546;42.674;23.284;2023-03-04T11:10:43;94589.00;;;14.88;41.94
30819;BME280;17546;42.674;23.284;2023-03-04T11:13:28;94579.34;;;15.40;40.94
30819;BME280;17546;42.674;23.284;2023-03-04T11:16:01;94575.38;;;15.49;41.16
30819;BME280;17546;42.674;23.284;2023-03-04T11:18:39;94571.16;;;15.29;41.14
30819;BME280;17546;42.674;23.284;2023-03-04T11:21:06;94562.69;;;15.35;41.17
30819;BME280;17546;42.674;23.284;2023-03-04T11:23:45;94565.03;;;14.98;41.78
30819;BME280;17546;42.674;23.284;2023-03-04T11:26:22;94558.72;;;14.79;42.76
30819;BME280;17546;42.674;23.284;2023-03-04T11:31:17;94555.88;;;15.17;42.00
30819;BME280;17546;42.674;23.284;2023-03-04T11:36:59;94548.41;;;15.38;41.79
30819;BME280;17546;42.674;23.284;2023-03-04T11:39:33;94550.06;;;15.60;41.28
30819;BME280;17546;42.674;23.284;2023-03-04T11:42:05;94548.66;;;15.54;41.60
30819;BME280;17546;42.674;23.284;2023-03-04T11:44:32;94542.03;;;15.57;41.52
30819;BME280;17546;42.674;23.284;2023-03-04T11:50:06;94531.22;;;15.34;41.36
30819;BME280;17546;42.674;23.284;2023-03-04T11:52:58;94527.66;;;15.66;41.13
30819;BME280;17546;42.674;23.284;2023-03-04T12:00:52;94527.03;;;15.86;40.96
30819;BME280;17546;42.674;23.284;2023-03-04T12:06:01;94519.06;;;15.64;41.14
30819;BME280;17546;42.674;23.284;2023-03-04T12:14:12;94505.00;;;15.96;40.64
30819;BME280;17546;42.674;23.284;2023-03-04T12:24:53;94494.75;;;16.25;40.17
30819;BME280;17546;42.674;23.284;2023-03-04T12:27:37;94489.44;;;16.01;40.00
30819;BME280;17546;42.674;23.284;2023-03-04T12:36:13;94483.31;;;15.76;40.40
30819;BME280;17546;42.674;23.284;2023-03-04T12:39:18;94482.13;;;15.98;40.22
30819;BME280;17546;42.674;23.284;2023-03-04T12:47:54;94479.09;;;16.09;40.35
30819;BME280;17546;42.674;23.284;2023-03-04T12:50:36;94477.59;;;16.08;40.42
30819;BME280;17546;42.674;23.284;2023-03-04T12:56:28;94470.97;;;15.12;41.87
30819;BME280;17546;42.674;23.284;2023-03-04T12:58:57;94464.09;;;15.85;40.88
30819;BME280;17546;42.674;23.284;2023-03-04T13:01:38;94461.69;;;15.89;40.92
30819;BME280;17546;42.674;23.284;2023-03-04T13:04:34;94455.56;;;16.04;40.60
30819;BME280;17546;42.674;23.284;2023-03-04T13:07:11;94457.50;;;16.09;40.28
30819;BME280;17546;42.674;23.284;2023-03-04T13:10:03;94450.38;;;16.22;40.54
30819;BME280;17546;42.674;23.284;2023-03-04T13:12:49;94443.97;;;15.60;41.01
30819;BME280;17546;42.674;23.284;2023-03-04T13:18:34;94433.97;;;16.05;41.05
30819;BME280;17546;42.674;23.284;2023-03-04T13:20:40;94431.69;;;16.17;40.20
30819;BME280;17546;42.674;23.284;2023-03-04T13:23:23;94432.84;;;15.74;40.62
30819;BME280;17546;42.674;23.284;2023-03-04T13:28:35;94428.63;;;15.94;40.32
30819;BME280;17546;42.674;23.284;2023-03-04T13:31:20;94435.50;;;15.66;40.87
30819;BME280;17546;42.674;23.284;2023-03-04T13:33:50;94428.41;;;15.38;40.96
30819;BME280;17546;42.674;23.284;2023-03-04T13:36:33;94430.03;;;15.87;40.37
30819;BME280;17546;42.674;23.284;2023-03-04T13:39:00;94422.84;;;15.78;40.79
30819;BME280;17546;42.674;23.284;2023-03-04T13:44:02;94427.56;;;15.97;40.37
30819;BME280;17546;42.674;23.284;2023-03-04T13:46:47;94423.81;;;15.94;40.15
30819;BME280;17546;42.674;23.284;2023-03-04T13:49:20;94423.44;;;15.98;39.94
30819;BME280;17546;42.674;23.284;2023-03-04T13:51:46;94416.13;;;16.08;39.59
30819;BME280;17546;42.674;23.284;2023-03-04T13:54:31;94419.31;;;16.25;39.60
30819;BME280;17546;42.674;23.284;2023-03-04T14:01:53;94408.88;;;15.65;41.05
30819;BME280;17546;42.674;23.284;2023-03-04T14:06:53;94405.91;;;16.10;40.73
30819;BME280;17546;42.674;23.284;2023-03-04T14:09:22;94400.25;;;15.89;40.85
30819;BME280;17546;42.674;23.284;2023-03-04T14:11:50;94396.41;;;15.66;40.89
30819;BME280;17546;42.674;23.284;2023-03-04T14:14:22;94403.03;;;16.03;40.15
30819;BME280;17546;42.674;23.284;2023-03-04T14:16:54;94399.34;;;16.21;40.06
30819;BME280;17546;42.674;23.284;2023-03-04T14:19:27;94395.53;;;15.98;40.24
30819;BME280;17546;42.674;23.284;2023-03-04T14:21:54;94385.25;;;15.79;40.91
30819;BME280;17546;42.674;23.284;2023-03-04T14:24:21;94385.25;;;15.79;40.93